Bookmark and Share
Track history (hours):
 

Excellent Pescadores

Last reported at 2014-Apr-18 14:27 UTC. Time now 2014-Apr-21 15:09 UTC.
Position S 29°40' E 031°44'.

Length 148 m; draft 5.2 m.

Type: Cargo ship. MMSI: 356291000.

NotesDate/timePositionNaut miles runAvg speedWind from/ knotsBaromVisibWave heightAir tempDewpointWater temp
2014-Apr-18 14:27S 29°40' E 031°44'910.0
2014-Apr-18 13:33S 29°43' E 031°34'1211.6
2014-Apr-18 12:32S 29°46' E 031°22'1212.2
2014-Apr-18 11:34S 29°49' E 031°08'6 4.2
2014-Apr-18 10:03S 29°53' E 031°02'0 0.0
2014-Apr-18 08:15S 29°53' E 031°02'0 0.0
2014-Apr-18 07:33S 29°53' E 031°02'0 0.0
2014-Apr-18 02:33S 29°53' E 031°02'0 0.0
2014-Apr-18 01:27S 29°53' E 031°02'0 0.0
2014-Apr-17 21:27S 29°53' E 031°02'0 0.0
2014-Apr-17 20:15S 29°53' E 031°02'0 0.0
2014-Apr-17 09:32S 29°53' E 031°02'0 0.0
2014-Apr-17 07:08S 29°53' E 031°02'0 0.0
2014-Apr-17 06:32S 29°53' E 031°02'0 0.0
2014-Apr-17 05:32S 29°53' E 031°02'0 0.0
2014-Apr-17 02:32S 29°53' E 031°02'4 4.1
2014-Apr-17 01:33S 29°50' E 031°05'2 1.7
2014-Apr-17 00:33S 29°48' E 031°06'1 0.5
2014-Apr-16 23:33S 29°48' E 031°06'3 3.0
2014-Apr-16 22:24S 29°45' E 031°07'0 0.0
2014-Apr-16 21:18S 29°45' E 031°07'0 0.0
2014-Apr-16 20:30S 29°45' E 031°08'0 0.0
2014-Apr-16 19:24S 29°45' E 031°08'0 0.0
2014-Apr-16 18:24S 29°45' E 031°08'3 3.7
2014-Apr-16 17:32S 29°47' E 031°11'1010.1
2014-Apr-16 16:33S 29°45' E 031°22'1211.3
2014-Apr-16 15:27S 29°41' E 031°35'  

Dump ship's entire track history

sailing weather and tide predictions

Excellent Pescadores — HORK — position and weather